Time;durP1;ratioP1;P1;durP2;ratioP2;P2;SDS_P1;SDS_P2;PMS_P1;PMS_P2;Temp;Humidity;BMP_temperature;BMP_pressure;BME280_temperature;BME280_humidity;BME280_pressure;Samples;Min_cycle;Max_cycle;Signal;HPM_P1;HPM_P2
2022/09/19 00:01:59;;;;;;;2.75;1.40;;;;;;;8.94;100.00;100329.00;5019257;28;20214;-73
2022/09/19 00:04:28;;;;;;;1.70;1.05;;;;;;;8.98;100.00;100322.59;5017348;28;20208;-73
2022/09/19 00:06:56;;;;;;;3.28;1.30;;;;;;;8.99;100.00;100318.94;5017855;28;20220;-73
2022/09/19 00:09:24;;;;;;;1.60;1.13;;;;;;;9.05;100.00;100316.03;5016037;28;20231;-73
2022/09/19 00:11:51;;;;;;;2.80;1.20;;;;;;;9.08;100.00;100313.19;5019806;28;20231;-72
2022/09/19 00:14:22;;;;;;;3.05;1.10;;;;;;;9.06;100.00;100320.44;5010375;28;20196;-74
2022/09/19 00:16:49;;;;;;;2.38;1.08;;;;;;;9.10;100.00;100324.75;5007902;28;20707;-74
2022/09/19 00:19:19;;;;;;;2.38;1.10;;;;;;;9.08;100.00;100323.94;5008517;28;20205;-74
2022/09/19 00:21:48;;;;;;;2.40;1.20;;;;;;;9.11;100.00;100325.63;5024582;28;20209;-73
2022/09/19 00:27:03;;;;;;;2.35;1.20;;;;;;;9.17;100.00;100325.38;5016631;28;20267;-73
2022/09/19 00:29:32;;;;;;;1.92;1.00;;;;;;;9.13;100.00;100318.38;5007710;28;20217;-72
2022/09/19 00:31:58;;;;;;;4.38;1.10;;;;;;;9.19;100.00;100313.63;5013761;28;20667;-73
2022/09/19 00:34:26;;;;;;;2.05;1.00;;;;;;;9.22;100.00;100315.31;5013712;28;20615;-75
2022/09/19 00:36:53;;;;;;;2.92;1.20;;;;;;;9.21;100.00;100315.41;5012864;28;20316;-73
2022/09/19 00:39:20;;;;;;;3.08;1.48;;;;;;;9.26;100.00;100326.81;5006639;28;20197;-74
2022/09/19 00:41:48;;;;;;;5.18;1.33;;;;;;;9.30;100.00;100321.25;5014025;28;20212;-73
2022/09/19 00:45:06;;;;;;;4.97;1.52;;;;;;;9.34;100.00;100312.13;5012148;28;20585;-73
2022/09/19 00:47:37;;;;;;;3.60;1.40;;;;;;;9.39;100.00;100317.31;4938166;29;20710;-73
2022/09/19 00:50:11;;;;;;;2.92;1.20;;;;;;;9.43;100.00;100323.44;4932533;29;20219;-74
2022/09/19 00:52:43;;;;;;;2.65;1.15;;;;;;;9.35;100.00;100318.38;4935226;29;20203;-74
2022/09/19 00:55:09;;;;;;;3.97;1.50;;;;;;;9.38;100.00;100331.69;4934116;29;20209;-74
2022/09/19 00:57:43;;;;;;;2.78;1.45;;;;;;;9.34;100.00;100335.47;4936340;29;20219;-73
2022/09/19 01:00:11;;;;;;;2.63;1.35;;;;;;;9.36;100.00;100331.78;4933526;29;20627;-74
2022/09/19 01:02:37;;;;;;;5.88;1.10;;;;;;;9.32;100.00;100323.91;4944034;29;20283;-73
2022/09/19 01:05:07;;;;;;;2.85;1.55;;;;;;;9.32;100.00;100335.50;4942870;29;20207;-73
2022/09/19 01:07:44;;;;;;;4.10;1.73;;;;;;;9.37;100.00;100341.56;4944440;29;20259;-71
2022/09/19 01:10:24;;;;;;;5.03;1.20;;;;;;;9.35;100.00;100345.25;4936204;29;20209;-75
2022/09/19 01:13:00;;;;;;;1.92;1.23;;;;;;;9.36;100.00;100347.00;4937586;29;20203;-74
2022/09/19 01:15:38;;;;;;;3.88;1.50;;;;;;;9.35;100.00;100340.75;4943129;29;20210;-72
2022/09/19 01:18:06;;;;;;;3.63;1.30;;;;;;;9.30;100.00;100342.75;4966935;28;20229;-73
2022/09/19 01:24:08;;;;;;;3.20;1.30;;;;;;;9.33;100.00;100345.31;4936000;29;20223;-74
2022/09/19 01:26:47;;;;;;;3.03;1.52;;;;;;;9.32;100.00;100343.56;4927526;29;20723;-74
2022/09/19 01:29:19;;;;;;;2.80;1.55;;;;;;;9.30;100.00;100350.81;4933578;29;20231;-75
2022/09/19 01:31:50;;;;;;;3.70;1.35;;;;;;;9.27;100.00;100352.75;4933837;29;20236;-73
2022/09/19 01:34:22;;;;;;;2.75;1.88;;;;;;;9.35;100.00;100345.25;4932007;29;20204;-74
2022/09/19 01:36:54;;;;;;;2.67;1.60;;;;;;;9.31;100.00;100346.31;4934079;29;20236;-73
2022/09/19 01:39:24;;;;;;;5.07;1.70;;;;;;;9.36;100.00;100344.31;4931374;29;20310;-74
2022/09/19 01:41:52;;;;;;;10.23;1.92;;;;;;;9.37;100.00;100364.88;4927610;29;20288;-73
2022/09/19 01:44:22;;;;;;;6.03;1.83;;;;;;;9.48;100.00;100368.00;4930977;29;20222;-72
2022/09/19 01:46:53;;;;;;;3.22;1.30;;;;;;;9.52;100.00;100368.75;4931407;29;20224;-72
2022/09/19 01:49:30;;;;;;;3.80;1.42;;;;;;;9.57;100.00;100367.63;4932270;29;20212;-73
2022/09/19 01:52:03;;;;;;;5.25;1.67;;;;;;;9.55;100.00;100363.25;4932611;29;20291;-72
2022/09/19 01:54:40;;;;;;;3.72;1.77;;;;;;;9.58;100.00;100368.50;4933658;29;20606;-73
2022/09/19 01:57:17;;;;;;;6.00;1.88;;;;;;;9.63;100.00;100376.38;4924089;29;20609;-74
2022/09/19 01:59:55;;;;;;;3.10;1.35;;;;;;;9.69;100.00;100374.28;4941761;28;20316;-73
2022/09/19 02:02:34;;;;;;;6.25;1.67;;;;;;;9.73;100.00;100370.53;5009503;28;20201;-75
2022/09/19 02:05:08;;;;;;;2.70;1.70;;;;;;;9.75;100.00;100375.88;5012314;28;20250;-74
2022/09/19 02:07:42;;;;;;;4.47;1.65;;;;;;;9.74;100.00;100371.41;5008571;28;20221;-71
2022/09/19 02:10:13;;;;;;;4.78;1.73;;;;;;;9.85;100.00;100365.59;5009702;28;20213;-72
2022/09/19 02:12:42;;;;;;;3.97;1.50;;;;;;;9.85;100.00;100376.34;5003938;28;20204;-73
2022/09/19 02:15:13;;;;;;;2.97;1.70;;;;;;;9.88;100.00;100376.19;5014406;28;20197;-73
2022/09/19 02:17:50;;;;;;;3.22;1.83;;;;;;;9.93;100.00;100379.59;5008997;28;20218;-73
2022/09/19 02:20:21;;;;;;;5.22;1.90;;;;;;;9.98;100.00;100377.56;5005597;28;20308;-73
2022/09/19 02:22:52;;;;;;;7.80;2.00;;;;;;;9.98;100.00;100377.56;5011477;28;20226;-73
2022/09/19 02:25:24;;;;;;;6.60;2.08;;;;;;;10.00;100.00;100386.44;5010474;28;20196;-73
2022/09/19 02:27:56;;;;;;;6.10;2.13;;;;;;;9.97;100.00;100383.88;5008255;28;20268;-72
2022/09/19 02:30:24;;;;;;;3.92;1.40;;;;;;;10.01;100.00;100394.44;5001896;28;20197;-74
2022/09/19 02:32:53;;;;;;;5.95;2.15;;;;;;;9.99;100.00;100396.34;5005541;28;20608;-73
2022/09/19 02:35:25;;;;;;;5.85;1.55;;;;;;;9.96;100.00;100398.28;5003948;28;20614;-73
2022/09/19 02:38:01;;;;;;;4.55;1.70;;;;;;;10.01;100.00;100388.19;5009119;28;20238;-73
2022/09/19 02:40:35;;;;;;;4.80;1.83;;;;;;;10.01;100.00;100399.81;5008189;28;20201;-73
2022/09/19 02:43:08;;;;;;;2.90;1.40;;;;;;;10.00;100.00;100397.22;4999523;28;20718;-73
2022/09/19 02:45:40;;;;;;;5.90;1.75;;;;;;;9.98;100.00;100401.78;5011183;28;20217;-73
2022/09/19 02:48:13;;;;;;;5.35;2.05;;;;;;;10.00;100.00;100402.59;5009387;28;20722;-74
2022/09/19 02:50:47;;;;;;;12.43;2.40;;;;;;;10.07;100.00;100411.28;5008740;28;20206;-74
2022/09/19 02:53:18;;;;;;;6.18;2.22;;;;;;;10.11;100.00;100402.13;5011991;28;20208;-73
2022/09/19 02:55:49;;;;;;;4.35;1.88;;;;;;;10.10;100.00;100403.06;5005643;28;20209;-74
2022/09/19 02:58:18;;;;;;;10.57;2.83;;;;;;;10.14;100.00;100404.69;5010444;28;20725;-74
2022/09/19 03:00:52;;;;;;;10.88;2.28;;;;;;;10.17;100.00;100409.91;5016469;28;20211;-73
2022/09/19 03:06:12;;;;;;;6.07;2.42;;;;;;;10.21;100.00;100411.53;5014475;28;20233;-74
2022/09/19 03:08:39;;;;;;;5.20;2.03;;;;;;;10.26;100.00;100414.03;5012045;28;20222;-73
2022/09/19 03:11:14;;;;;;;5.60;2.63;;;;;;;10.26;100.00;100416.72;5011387;28;20677;-73
2022/09/19 03:13:42;;;;;;;8.70;2.03;;;;;;;10.27;100.00;100413.09;5011650;28;20205;-72
2022/09/19 03:16:14;;;;;;;7.82;2.25;;;;;;;10.21;100.00;100407.03;5022685;28;20202;-73
2022/09/19 03:18:45;;;;;;;3.55;1.80;;;;;;;10.21;100.00;100423.19;5010866;28;20195;-74
2022/09/19 03:21:14;;;;;;;4.82;2.20;;;;;;;10.19;100.00;100422.38;5013111;28;20210;-73
2022/09/19 03:23:43;;;;;;;4.55;1.90;;;;;;;10.19;100.00;100411.59;5020084;28;20202;-73
2022/09/19 03:26:12;;;;;;;6.35;2.55;;;;;;;10.14;100.00;100424.38;5032949;28;20198;-72
2022/09/19 03:28:38;;;;;;;8.80;3.35;;;;;;;10.19;100.00;100416.97;5020689;28;20297;-73
2022/09/19 03:31:05;;;;;;;6.57;2.42;;;;;;;10.30;100.00;100429.16;5030986;28;20202;-73
2022/09/19 03:33:33;;;;;;;6.85;3.10;;;;;;;10.40;100.00;100428.69;5032255;28;20202;-74
2022/09/19 03:36:06;;;;;;;5.57;3.00;;;;;;;10.41;100.00;100425.03;5027638;28;20296;-73
2022/09/19 03:38:32;;;;;;;7.85;3.90;;;;;;;10.37;100.00;100430.63;5013888;28;20287;-73
2022/09/19 03:40:59;;;;;;;5.13;2.72;;;;;;;10.44;100.00;100434.78;5021123;28;20207;-74
2022/09/19 03:43:25;;;;;;;8.60;3.05;;;;;;;10.45;100.00;100431.16;5025120;28;20207;-74
2022/09/19 03:45:52;;;;;;;10.48;3.38;;;;;;;10.50;100.00;100436.34;5014134;28;20199;-73
2022/09/19 03:48:20;;;;;;;6.65;3.42;;;;;;;10.51;100.00;100430.88;5010597;28;20678;-73
2022/09/19 03:50:48;;;;;;;9.10;3.20;;;;;;;10.53;100.00;100436.19;5014641;28;20569;-74
2022/09/19 03:53:16;;;;;;;7.72;3.17;;;;;;;10.52;100.00;100443.41;5014087;28;20220;-73
2022/09/19 03:55:44;;;;;;;7.22;2.80;;;;;;;10.53;100.00;100438.91;5006790;28;20625;-73
2022/09/19 03:58:10;;;;;;;5.07;3.35;;;;;;;10.56;100.00;100441.44;5008153;28;20254;-72
2022/09/19 04:00:37;;;;;;;8.73;3.10;;;;;;;10.59;100.00;100444.88;5012150;28;20191;-73
2022/09/19 04:03:03;;;;;;;7.47;2.85;;;;;;;10.66;100.00;100445.47;5017522;28;20198;-74
2022/09/19 04:05:32;;;;;;;6.13;3.55;;;;;;;10.62;100.00;100450.13;5014632;28;20206;-74
2022/09/19 04:08:01;;;;;;;6.93;3.50;;;;;;;10.56;100.00;100446.81;5007165;28;20265;-73
2022/09/19 04:10:27;;;;;;;7.32;3.10;;;;;;;10.59;100.00;100454.78;5009572;28;20219;-73
2022/09/19 04:12:56;;;;;;;7.30;2.80;;;;;;;10.56;100.00;100449.50;5014136;28;20576;-74
2022/09/19 04:15:22;;;;;;;7.38;3.67;;;;;;;10.44;100.00;100462.56;5013625;28;20279;-74
2022/09/19 04:17:49;;;;;;;12.00;3.55;;;;;;;10.44;100.00;100450.94;5010076;28;20242;-73
2022/09/19 04:20:15;;;;;;;13.70;3.65;;;;;;;10.38;100.00;100453.94;5013647;28;20206;-73
2022/09/19 04:22:42;;;;;;;11.65;3.13;;;;;;;10.32;100.00;100465.81;5013439;28;20571;-73
2022/09/19 04:25:10;;;;;;;4.70;3.22;;;;;;;10.34;100.00;100471.16;5004918;28;20218;-75
2022/09/19 04:27:38;;;;;;;7.95;3.45;;;;;;;10.29;100.00;100473.13;5007090;28;20305;-74
2022/09/19 04:30:05;;;;;;;12.77;3.42;;;;;;;10.28;100.00;100479.44;5007850;28;20268;-75
2022/09/19 04:32:32;;;;;;;6.95;3.17;;;;;;;10.21;100.00;100493.16;5010972;28;20199;-74
2022/09/19 04:35:00;;;;;;;10.20;3.65;;;;;;;10.08;100.00;100485.66;5024710;28;20212;-74
2022/09/19 04:37:29;;;;;;;6.70;3.50;;;;;;;10.16;100.00;100500.56;5041212;23;20636;-76
2022/09/19 04:39:57;;;;;;;9.93;4.15;;;;;;;10.12;100.00;100506.13;5024342;28;20205;-74
2022/09/19 04:42:25;;;;;;;5.10;3.63;;;;;;;10.19;100.00;100511.19;5032537;28;20194;-75
2022/09/19 04:44:53;;;;;;;10.90;3.97;;;;;;;10.19;100.00;100511.19;5030951;28;20210;-75
2022/09/19 04:47:20;;;;;;;8.57;3.75;;;;;;;10.27;100.00;100513.56;5032026;28;20214;-76
2022/09/19 04:49:48;;;;;;;7.07;3.33;;;;;;;10.31;100.00;100519.72;5049999;28;20566;-81
2022/09/19 04:52:15;;;;;;;11.50;3.75;;;;;;;10.31;100.00;100520.63;5044346;28;20208;-75
2022/09/19 04:54:43;;;;;;;10.63;3.78;;;;;;;10.40;100.00;100522.00;5051388;28;20209;-75
2022/09/19 04:57:10;;;;;;;7.35;3.72;;;;;;;10.43;100.00;100525.47;5053320;28;20300;-76
2022/09/19 04:59:38;;;;;;;8.60;3.42;;;;;;;10.39;100.00;100529.22;5046418;28;20194;-76
2022/09/19 05:02:08;;;;;;;9.07;3.90;;;;;;;10.36;100.00;100525.81;5069766;28;20319;-75
2022/09/19 05:04:35;;;;;;;4.95;2.92;;;;;;;10.43;100.00;100525.47;5075700;28;20244;-75
2022/09/19 05:07:02;;;;;;;7.60;3.72;;;;;;;10.45;100.00;100528.09;5054081;28;20607;-75
2022/09/19 05:09:29;;;;;;;11.00;3.65;;;;;;;10.43;100.00;100527.28;5036089;28;20229;-76
2022/09/19 05:11:56;;;;;;;7.47;3.42;;;;;;;10.46;100.00;100528.97;5049638;28;20193;-77
2022/09/19 05:14:23;;;;;;;9.07;3.58;;;;;;;10.50;100.00;100535.97;5051199;28;20197;-76
2022/09/19 05:16:51;;;;;;;8.88;3.17;;;;;;;10.41;100.00;100531.84;5052595;28;20236;-76
2022/09/19 05:19:21;;;;;;;7.15;3.10;;;;;;;10.41;100.00;100543.50;5049473;28;20301;-76
2022/09/19 05:21:48;;;;;;;6.70;2.60;;;;;;;10.41;100.00;100534.56;5041402;28;20201;-76
2022/09/19 05:24:16;;;;;;;10.77;2.80;;;;;;;10.35;100.00;100532.97;5054567;28;20204;-75
2022/09/19 05:26:43;;;;;;;9.10;3.63;;;;;;;10.38;100.00;100550.84;5054649;28;20205;-76
2022/09/19 05:29:12;;;;;;;15.07;3.80;;;;;;;10.41;100.00;100539.94;5049939;28;20682;-76
2022/09/19 05:31:39;;;;;;;8.07;2.90;;;;;;;10.47;100.00;100541.47;5053978;28;20662;-76
2022/09/19 05:34:09;;;;;;;12.20;4.03;;;;;;;10.47;100.00;100538.78;5054414;28;20204;-76
2022/09/19 05:36:35;;;;;;;8.40;3.95;;;;;;;10.55;100.00;100545.59;5052897;28;20188;-78
2022/09/19 05:39:02;;;;;;;9.25;3.40;;;;;;;10.60;100.00;100537.31;5048930;28;20595;-76
2022/09/19 05:41:29;;;;;;;8.15;3.70;;;;;;;10.61;100.00;100548.03;5054509;28;20204;-76
2022/09/19 05:43:56;;;;;;;7.88;3.38;;;;;;;10.65;100.00;100540.72;5055380;28;20206;-76
2022/09/19 05:46:23;;;;;;;10.43;4.03;;;;;;;10.69;100.00;100545.00;5057530;28;20204;-76
2022/09/19 05:48:49;;;;;;;10.07;3.50;;;;;;;10.69;100.00;100550.38;5054637;28;20228;-76
2022/09/19 05:51:17;;;;;;;7.38;3.92;;;;;;;10.69;100.00;100552.22;5055115;28;20221;-76
2022/09/19 05:53:52;;;;;;;9.05;3.50;;;;;;;10.60;100.00;100562.44;5044256;28;20205;-75
2022/09/19 05:56:20;;;;;;;8.10;3.30;;;;;;;10.65;100.00;100562.25;5055400;28;20588;-76
2022/09/19 05:59:02;;;;;;;6.97;3.58;;;;;;;10.76;100.00;100565.38;5058125;28;20221;-75
2022/09/19 06:01:28;;;;;;;5.72;3.30;;;;;;;10.85;100.00;100570.34;5057882;28;20201;-76
2022/09/19 06:03:55;;;;;;;4.63;3.00;;;;;;;10.80;100.00;100577.72;5057825;28;20651;-76
2022/09/19 06:06:23;;;;;;;9.98;4.15;;;;;;;10.87;100.00;100572.09;5052514;28;20204;-77
2022/09/19 06:08:57;;;;;;;13.75;4.07;;;;;;;10.87;100.00;100572.94;5060666;28;20598;-75
2022/09/19 06:11:23;;;;;;;7.45;3.80;;;;;;;10.98;100.00;100586.84;5060680;28;20308;-76
2022/09/19 06:16:35;;;;;;;8.00;3.53;;;;;;;11.03;100.00;100579.44;5051210;28;20584;-76
2022/09/19 06:19:01;;;;;;;12.43;4.50;;;;;;;11.09;100.00;100577.41;5047466;28;20208;-76
2022/09/19 06:21:31;;;;;;;8.95;4.25;;;;;;;11.24;100.00;100585.69;5056488;28;20193;-76
2022/09/19 06:23:58;;;;;;;11.73;4.88;;;;;;;11.29;100.00;100585.47;5046106;28;20348;-75
2022/09/19 06:26:26;;;;;;;11.75;4.93;;;;;;;11.43;100.00;100583.00;5055027;28;20212;-77
2022/09/19 06:28:54;;;;;;;9.68;4.80;;;;;;;11.49;100.00;100589.97;5053781;28;20797;-76
2022/09/19 06:31:21;;;;;;;10.35;4.22;;;;;;;11.55;100.00;100596.88;5052873;28;20206;-75
2022/09/19 06:33:47;;;;;;;7.63;5.10;;;;;;;11.54;100.00;100593.31;5059960;28;20259;-75
2022/09/19 06:36:14;;;;;;;10.88;4.90;;;;;;;11.59;100.00;100598.50;5051212;28;20204;-75
2022/09/19 06:38:43;;;;;;;9.25;4.32;;;;;;;11.58;100.00;100610.25;5053980;28;20321;-75
2022/09/19 06:41:10;;;;;;;7.18;4.38;;;;;;;11.58;100.00;100607.53;5058794;28;20197;-76
2022/09/19 06:43:37;;;;;;;11.55;5.85;;;;;;;11.71;100.00;100606.00;5051534;28;20203;-75
2022/09/19 06:46:04;;;;;;;14.60;5.18;;;;;;;11.94;100.00;100609.47;5044998;28;20219;-75
2022/09/19 06:48:31;;;;;;;11.30;5.00;;;;;;;12.22;100.00;100603.63;5033874;28;20222;-75
2022/09/19 06:50:57;;;;;;;11.38;3.85;;;;;;;12.30;100.00;100610.41;5045100;28;20225;-75
2022/09/19 06:53:24;;;;;;;9.27;4.45;;;;;;;12.38;100.00;100610.00;5053747;28;20209;-74
2022/09/19 06:55:52;;;;;;;7.88;3.85;;;;;;;12.40;100.00;100601.84;5051009;28;20195;-75
2022/09/19 06:58:19;;;;;;;9.95;4.07;;;;;;;12.34;100.00;100616.50;5035670;28;20226;-75
2022/09/19 07:00:46;;;;;;;7.32;4.50;;;;;;;12.51;100.00;100608.44;5039239;28;20197;-75
2022/09/19 07:03:15;;;;;;;7.18;3.75;;;;;;;12.91;100.00;100613.66;5052555;28;20202;-75
2022/09/19 07:05:45;;;;;;;12.73;4.22;;;;;;;13.40;100.00;100616.50;5036646;28;20257;-76
2022/09/19 07:08:13;;;;;;;11.38;4.00;;;;;;;13.49;100.00;100624.13;5049634;28;20269;-75
2022/09/19 07:10:39;;;;;;;8.48;4.10;;;;;;;13.28;100.00;100620.75;5051492;28;20222;-75
2022/09/19 07:13:13;;;;;;;7.45;3.80;;;;;;;13.19;100.00;100620.34;5053811;28;20586;-75
2022/09/19 07:15:40;;;;;;;8.77;4.45;;;;;;;12.79;100.00;100627.81;5057434;28;20222;-74
2022/09/19 07:18:08;;;;;;;7.15;4.00;;;;;;;12.59;100.00;100631.50;5054394;28;20220;-75
2022/09/19 07:20:35;;;;;;;9.75;4.63;;;;;;;12.50;100.00;100630.13;5044620;28;20242;-76
2022/09/19 07:23:05;;;;;;;9.18;4.32;;;;;;;12.47;100.00;100624.91;5051280;28;20208;-76
2022/09/19 07:25:33;;;;;;;9.68;3.85;;;;;;;12.47;100.00;100620.34;5036061;28;20199;-75
2022/09/19 07:28:01;;;;;;;6.95;3.53;;;;;;;12.46;100.00;100631.25;5051836;28;20226;-75
2022/09/19 07:30:30;;;;;;;9.02;3.20;;;;;;;12.77;100.00;100630.56;5036008;28;20218;-75
2022/09/19 07:32:57;;;;;;;6.78;3.60;;;;;;;13.63;100.00;100625.22;5050796;28;20250;-76
2022/09/19 07:35:25;;;;;;;6.15;3.92;;;;;;;14.17;100.00;100631.22;5044243;28;20342;-76
2022/09/19 07:37:52;;;;;;;9.15;3.58;;;;;;;13.82;100.00;100636.78;5055851;28;20684;-77
2022/09/19 07:40:18;;;;;;;7.75;4.05;;;;;;;13.72;100.00;100632.81;5063604;28;20267;-75
2022/09/19 07:42:45;;;;;;;7.43;3.72;;;;;;;13.51;100.00;100641.16;5052943;28;20235;-76
2022/09/19 07:45:11;;;;;;;8.10;3.33;;;;;;;13.18;100.00;100630.25;5050227;28;20200;-75
2022/09/19 07:47:44;;;;;;;9.32;3.72;;;;;;;12.85;100.00;100641.00;5050846;28;20219;-76
2022/09/19 07:50:12;;;;;;;5.20;3.70;;;;;;;12.86;100.00;100648.16;5056052;28;20232;-75
2022/09/19 07:52:39;;;;;;;5.22;4.07;;;;;;;13.29;100.00;100648.66;5053741;28;20285;-75
2022/09/19 07:55:06;;;;;;;5.65;4.05;;;;;;;13.52;100.00;100656.44;5044084;28;20605;-75
2022/09/19 07:57:32;;;;;;;16.75;4.50;;;;;;;13.75;100.00;100665.16;5053654;28;20220;-74
2022/09/19 07:59:59;;;;;;;11.15;4.60;;;;;;;13.84;100.00;100670.06;5054376;28;20215;-75
2022/09/19 08:02:26;;;;;;;10.75;4.70;;;;;;;13.63;100.00;100673.94;5055782;28;20211;-75
2022/09/19 08:04:54;;;;;;;10.15;5.10;;;;;;;13.68;100.00;100679.97;5050921;28;20207;-75
2022/09/19 08:07:20;;;;;;;11.10;5.35;;;;;;;13.55;100.00;100672.50;5042466;28;20256;-75
2022/09/19 08:09:47;;;;;;;7.93;4.75;;;;;;;13.23;100.00;100687.72;5045649;28;20208;-74
2022/09/19 08:12:14;;;;;;;13.00;6.40;;;;;;;12.93;100.00;100682.03;5047189;28;20204;-74
2022/09/19 08:14:40;;;;;;;12.52;7.18;;;;;;;12.87;100.00;100694.03;5045616;28;20204;-75
2022/09/19 08:17:07;;;;;;;9.40;5.95;;;;;;;12.90;100.00;100687.59;5043716;28;20595;-74
2022/09/19 08:19:33;;;;;;;9.43;6.57;;;;;;;12.88;100.00;100682.25;5052412;28;20199;-76
2022/09/19 08:22:01;;;;;;;11.93;6.55;;;;;;;13.00;100.00;100683.50;5052904;28;20201;-75
2022/09/19 08:24:28;;;;;;;8.45;5.85;;;;;;;13.02;100.00;100696.91;5049150;28;20291;-76
2022/09/19 08:26:58;;;;;;;10.70;6.13;;;;;;;13.10;100.00;100689.28;5053614;28;20286;-74
2022/09/19 08:29:26;;;;;;;14.57;6.28;;;;;;;13.04;100.00;100701.28;5074541;28;20287;-74
2022/09/19 08:31:53;;;;;;;8.80;5.80;;;;;;;13.10;100.00;100694.69;5069683;28;20227;-75
2022/09/19 08:34:19;;;;;;;7.50;5.40;;;;;;;13.18;100.00;100691.59;5056704;28;20600;-75
2022/09/19 08:36:46;;;;;;;8.35;5.45;;;;;;;13.21;100.00;100704.97;5056807;28;20202;-75
2022/09/19 08:39:16;;;;;;;10.90;5.25;;;;;;;13.04;100.00;100703.13;5053358;28;20200;-75
2022/09/19 08:41:57;;;;;;;11.52;5.80;;;;;;;13.22;100.00;100704.00;5056088;28;20192;-75
2022/09/19 08:44:35;;;;;;;9.60;5.90;;;;;;;13.31;100.00;100706.25;5053970;28;20636;-75
2022/09/19 08:47:07;;;;;;;11.18;6.25;;;;;;;13.40;100.00;100708.50;5052844;28;20224;-74
2022/09/19 08:49:39;;;;;;;12.07;6.30;;;;;;;13.60;100.00;100698.47;5048674;28;20653;-74
2022/09/19 08:52:12;;;;;;;11.45;5.50;;;;;;;13.83;100.00;100716.16;5055625;28;20585;-76
2022/09/19 08:54:44;;;;;;;10.38;5.30;;;;;;;13.63;100.00;100712.69;5037230;28;20202;-76
2022/09/19 08:57:18;;;;;;;8.05;5.25;;;;;;;13.37;100.00;100711.38;5037183;28;20280;-73
2022/09/19 08:59:47;;;;;;;8.50;5.00;;;;;;;13.45;100.00;100714.53;5053061;28;20314;-75
2022/09/19 09:02:26;;;;;;;10.30;6.30;;;;;;;13.48;100.00;100710.81;5042148;28;20190;-75
2022/09/19 09:04:54;;;;;;;7.78;5.57;;;;;;;13.61;100.00;100711.88;5051217;28;20620;-76
2022/09/19 09:07:37;;;;;;;8.98;5.43;;;;;;;13.70;100.00;100708.72;5053971;28;20226;-75
2022/09/19 09:10:18;;;;;;;8.80;5.90;;;;;;;13.60;100.00;100709.28;5048503;28;20202;-74
2022/09/19 09:12:51;;;;;;;10.60;6.07;;;;;;;13.66;100.00;100719.78;5045585;28;20203;-75
2022/09/19 09:15:24;;;;;;;13.10;6.25;;;;;;;13.65;100.00;100713.47;5049696;28;20203;-76
2022/09/19 09:18:02;;;;;;;6.60;5.55;;;;;;;13.61;100.00;100713.72;5053973;28;20254;-75
2022/09/19 09:20:43;;;;;;;12.48;5.55;;;;;;;13.73;100.00;100713.97;5054562;28;20602;-75
2022/09/19 09:23:16;;;;;;;8.95;6.25;;;;;;;13.61;100.00;100732.66;5051474;28;20212;-75
2022/09/19 09:25:47;;;;;;;8.70;5.80;;;;;;;13.90;100.00;100728.41;5051183;28;20546;-75
2022/09/19 09:28:19;;;;;;;9.65;6.43;;;;;;;14.10;100.00;100724.63;5047253;28;20228;-75
2022/09/19 09:30:49;;;;;;;8.85;6.53;;;;;;;14.18;100.00;100728.66;5048813;28;20298;-76
2022/09/19 09:33:23;;;;;;;11.88;6.03;;;;;;;14.61;100.00;100728.13;5052087;28;20200;-75
2022/09/19 09:35:54;;;;;;;7.20;5.10;;;;;;;14.75;100.00;100722.78;5053976;28;20243;-76
2022/09/19 09:38:31;;;;;;;14.50;5.55;;;;;;;15.02;100.00;100719.44;5043877;28;20236;-76
2022/09/19 09:43:59;;;;;;;9.80;5.00;;;;;;;15.11;100.00;100713.47;5037938;28;20212;-76
2022/09/19 09:46:36;;;;;;;10.80;5.38;;;;;;;15.26;100.00;100714.38;5053603;28;20682;-75
2022/09/19 09:49:02;;;;;;;9.60;4.28;;;;;;;15.10;100.00;100710.81;5050863;28;20193;-75
2022/09/19 09:51:39;;;;;;;6.88;4.68;;;;;;;15.01;100.00;100714.94;5043595;28;20734;-76
2022/09/19 09:57:34;;;;;;;6.22;4.00;;;;;;;15.45;100.00;100707.84;5050091;28;20294;-75
2022/09/19 10:05:47;;;;;;;6.82;3.90;;;;;;;15.52;100.00;100704.66;5038745;28;20293;-76
2022/09/19 10:08:19;;;;;;;5.15;3.60;;;;;;;15.92;97.14;100706.75;5051103;28;20838;-77
2022/09/19 10:10:49;;;;;;;4.43;3.40;;;;;;;16.62;91.27;100704.06;5049961;28;20213;-76
2022/09/19 10:13:26;;;;;;;6.03;3.63;;;;;;;16.77;87.62;100707.63;5046517;28;20198;-76
2022/09/19 10:15:55;;;;;;;4.78;3.35;;;;;;;16.46;88.86;100702.38;5061543;28;20197;-76
2022/09/19 10:18:27;;;;;;;5.00;3.67;;;;;;;16.29;89.55;100699.00;5048177;28;20223;-75
2022/09/19 10:20:55;;;;;;;7.00;3.47;;;;;;;16.24;89.80;100702.88;5052309;28;20654;-77
2022/09/19 10:23:24;;;;;;;5.88;3.08;;;;;;;16.24;90.90;100700.16;5048808;28;20329;-75
2022/09/19 10:25:52;;;;;;;4.65;3.53;;;;;;;17.73;79.83;100689.28;5044963;28;20197;-76
2022/09/19 10:28:30;;;;;;;5.07;3.60;;;;;;;19.24;68.01;100692.72;5039670;28;20229;-76
2022/09/19 10:30:59;;;;;;;7.72;4.00;;;;;;;18.41;70.73;100696.22;5050880;28;20213;-76
2022/09/19 10:33:38;;;;;;;6.90;3.25;;;;;;;18.00;75.95;100691.94;5050282;28;20201;-77
2022/09/19 10:36:07;;;;;;;4.38;2.88;;;;;;;17.77;77.00;100700.81;5052686;28;20192;-78
2022/09/19 10:38:48;;;;;;;6.15;2.83;;;;;;;17.67;79.17;100698.75;5042674;23;20409;-76
2022/09/19 10:41:16;;;;;;;8.23;3.70;;;;;;;17.59;79.93;100714.78;5013978;28;20695;-76
2022/09/19 10:43:48;;;;;;;8.57;4.13;;;;;;;17.20;78.29;100704.78;5015898;28;20207;-75
2022/09/19 10:46:20;;;;;;;7.75;3.58;;;;;;;17.41;77.71;100708.75;5015651;28;20229;-76
2022/09/19 10:48:53;;;;;;;8.32;3.95;;;;;;;17.46;76.06;100708.44;5015831;28;20257;-76
2022/09/19 10:51:20;;;;;;;9.95;4.43;;;;;;;18.12;72.75;100707.38;5016653;28;20213;-77
2022/09/19 10:53:53;;;;;;;6.40;3.50;;;;;;;18.07;70.96;100709.59;5017110;28;20207;-76
2022/09/19 10:56:24;;;;;;;7.13;3.47;;;;;;;17.60;72.89;100700.16;5016014;28;20666;-75
2022/09/19 10:59:01;;;;;;;5.47;3.13;;;;;;;17.14;76.15;100716.06;5016856;28;20766;-75
2022/09/19 11:01:28;;;;;;;6.57;3.90;;;;;;;17.40;74.08;100701.53;5015571;28;20210;-74
2022/09/19 11:03:59;;;;;;;7.95;3.80;;;;;;;19.04;66.82;100707.03;5014821;28;20206;-75
2022/09/19 11:06:27;;;;;;;8.07;3.20;;;;;;;20.95;57.85;100700.94;5011675;28;20203;-75
2022/09/19 11:08:56;;;;;;;4.97;2.50;;;;;;;22.19;51.69;100701.13;5016930;28;20220;-75
2022/09/19 11:11:32;;;;;;;7.23;2.70;;;;;;;21.83;51.48;100700.66;5017310;28;20481;-76
2022/09/19 11:14:18;;;;;;;6.20;2.50;;;;;;;20.75;54.34;100697.13;5015087;28;20465;-75
2022/09/19 11:17:04;;;;;;;9.60;3.10;;;;;;;20.37;56.80;100701.13;5015836;28;20596;-75
2022/09/19 11:19:48;;;;;;;8.23;2.80;;;;;;;19.91;57.39;100693.94;5019444;28;20485;-75
2022/09/19 11:22:32;;;;;;;5.80;2.73;;;;;;;19.26;58.67;100701.66;5021056;28;20465;-76
2022/09/19 11:25:10;;;;;;;7.50;2.77;;;;;;;19.60;58.27;100701.78;5018071;28;20461;-76
2022/09/19 11:28:05;;;;;;;5.67;2.60;;;;;;;19.00;60.77;100700.09;5007467;28;20481;-76
2022/09/19 11:30:39;;;;;;;4.63;2.60;;;;;;;18.89;61.73;100693.56;5018134;28;20437;-75
2022/09/19 11:33:27;;;;;;;7.37;2.83;;;;;;;19.54;59.13;100694.09;5019401;28;20465;-76
2022/09/19 11:36:02;;;;;;;4.70;2.70;;;;;;;19.27;60.69;100687.03;5010726;28;20445;-75
2022/09/19 11:38:40;;;;;;;4.63;2.20;;;;;;;18.86;62.65;100695.66;5017644;28;20484;-74
2022/09/19 11:41:25;;;;;;;3.33;2.50;;;;;;;17.96;67.60;100681.38;5013824;28;20437;-77
2022/09/19 11:44:04;;;;;;;5.70;2.30;;;;;;;17.74;67.24;100693.75;5013878;28;20447;-76
2022/09/19 11:46:39;;;;;;;6.47;2.60;;;;;;;17.53;69.69;100690.69;5017959;28;20441;-76
2022/09/19 11:49:30;;;;;;;6.45;2.35;;;;;;;17.48;70.61;100695.59;5017445;28;21017;-76
2022/09/19 11:52:02;;;;;;;9.70;2.97;;;;;;;17.27;71.73;100695.19;5006878;28;20215;-76
2022/09/19 11:54:57;;;;;;;7.63;2.30;;;;;;;17.64;69.38;100682.63;5014430;28;20236;-76
2022/09/19 11:57:37;;;;;;;6.00;2.47;;;;;;;18.53;66.11;100695.31;5015510;28;20220;-76
2022/09/19 12:00:13;;;;;;;3.47;2.15;;;;;;;19.24;60.09;100681.81;5025869;28;20244;-76